createdAt,value
2018-03-26T00:02:12.328Z,48.90
2018-03-26T00:04:38.588Z,49.00
2018-03-26T00:07:04.885Z,48.70
2018-03-26T00:09:31.184Z,48.80
2018-03-26T00:11:58.259Z,49.70
2018-03-26T00:14:24.569Z,49.70
2018-03-26T00:16:50.925Z,49.80
2018-03-26T00:19:17.260Z,50.00
2018-03-26T00:21:43.560Z,50.10
2018-03-26T00:24:09.824Z,50.40
2018-03-26T00:26:36.103Z,50.30
2018-03-26T00:29:03.136Z,50.50
2018-03-26T00:31:29.515Z,50.40
2018-03-26T00:33:55.813Z,50.60
2018-03-26T00:36:22.854Z,50.30
2018-03-26T00:38:49.932Z,50.50
2018-03-26T00:41:16.224Z,50.50
2018-03-26T00:43:42.477Z,50.70
2018-03-26T00:46:09.528Z,50.40
2018-03-26T00:48:36.545Z,50.20
2018-03-26T00:51:02.832Z,50.20
2018-03-26T00:53:41.368Z,50.20
2018-03-26T00:56:07.763Z,50.30
2018-03-26T00:58:34.056Z,50.20
2018-03-26T01:01:00.345Z,50.00
2018-03-26T01:03:26.670Z,50.10
2018-03-26T01:05:52.984Z,50.30
2018-03-26T01:08:19.331Z,50.50
2018-03-26T01:10:45.615Z,50.60
2018-03-26T01:13:11.907Z,51.10
2018-03-26T01:15:38.180Z,51.30
2018-03-26T01:18:04.460Z,51.30
2018-03-26T01:20:30.741Z,51.30
2018-03-26T01:22:57.000Z,51.60
2018-03-26T01:25:23.295Z,51.40
2018-03-26T01:27:49.566Z,51.30
2018-03-26T01:30:15.840Z,51.40
2018-03-26T01:32:42.141Z,51.50
2018-03-26T01:35:08.420Z,51.40
2018-03-26T01:37:34.732Z,51.60
2018-03-26T01:40:01.034Z,51.60
2018-03-26T01:42:27.331Z,51.70
2018-03-26T01:44:54.377Z,51.50
2018-03-26T01:47:21.400Z,51.70
2018-03-26T01:49:47.691Z,51.70
2018-03-26T01:52:14.118Z,51.70
2018-03-26T01:54:40.428Z,51.70
2018-03-26T01:57:06.712Z,51.60
2018-03-26T01:59:33.008Z,51.70
2018-03-26T02:01:59.321Z,51.10
2018-03-26T02:04:25.631Z,51.10
2018-03-26T02:06:52.661Z,51.40
2018-03-26T02:09:18.920Z,51.30
2018-03-26T02:11:45.948Z,51.20
2018-03-26T02:14:12.989Z,51.70
2018-03-26T02:16:39.292Z,51.70
2018-03-26T02:19:05.596Z,51.60
2018-03-26T02:21:31.932Z,51.60
2018-03-26T02:23:58.193Z,52.10
2018-03-26T02:26:24.593Z,51.90
2018-03-26T02:28:50.901Z,51.90
2018-03-26T02:31:17.919Z,51.60
2018-03-26T02:33:44.232Z,51.50
2018-03-26T02:36:10.501Z,51.50
2018-03-26T02:38:37.531Z,51.70
2018-03-26T02:41:03.825Z,51.70
2018-03-26T02:43:30.331Z,51.70
2018-03-26T02:45:56.646Z,51.80
2018-03-26T02:48:23.678Z,51.50
2018-03-26T02:50:49.961Z,51.50
2018-03-26T02:53:16.288Z,51.50
2018-03-26T02:55:42.620Z,51.40
2018-03-26T02:58:08.904Z,51.00
2018-03-26T03:00:35.997Z,51.00
2018-03-26T03:03:02.302Z,50.90
2018-03-26T03:05:29.328Z,50.90
2018-03-26T03:07:55.624Z,50.90
2018-03-26T03:10:21.913Z,50.80
2018-03-26T03:12:48.936Z,51.20
2018-03-26T03:15:15.226Z,51.10
2018-03-26T03:17:41.568Z,51.00
2018-03-26T03:20:07.985Z,50.90
2018-03-26T03:22:34.338Z,50.70
2018-03-26T03:25:00.637Z,50.70
2018-03-26T03:27:26.954Z,50.50
2018-03-26T03:29:53.989Z,50.30
2018-03-26T03:32:21.016Z,50.20
2018-03-26T03:34:47.301Z,50.20
2018-03-26T03:37:13.559Z,50.10
2018-03-26T03:39:39.899Z,50.10
2018-03-26T03:42:06.204Z,49.80
2018-03-26T03:44:32.525Z,49.30
2018-03-26T03:46:58.838Z,49.20
2018-03-26T03:49:25.156Z,49.30
2018-03-26T03:51:52.200Z,49.30
2018-03-26T03:54:19.296Z,48.90
2018-03-26T03:56:45.612Z,48.90
2018-03-26T03:59:11.941Z,48.70
2018-03-26T04:01:38.220Z,49.10
2018-03-26T04:04:04.499Z,49.20
2018-03-26T04:06:30.777Z,49.40
2018-03-26T04:08:57.071Z,49.00
2018-03-26T04:11:23.393Z,49.50
2018-03-26T04:13:49.700Z,49.40
2018-03-26T04:16:15.986Z,49.80
2018-03-26T04:18:42.399Z,49.30
2018-03-26T04:21:08.696Z,49.50
2018-03-26T04:23:34.977Z,49.40
2018-03-26T04:26:01.357Z,49.40
2018-03-26T04:28:27.637Z,49.50
2018-03-26T04:30:53.912Z,49.10
2018-03-26T04:33:20.937Z,49.50
2018-03-26T04:35:47.231Z,49.50
2018-03-26T04:38:13.528Z,53.70
2018-03-26T04:40:39.841Z,57.00
2018-03-26T04:43:06.861Z,57.10
2018-03-26T04:45:33.186Z,56.90
2018-03-26T04:47:59.465Z,56.90
2018-03-26T04:50:25.765Z,54.30
2018-03-26T04:52:52.170Z,55.30
2018-03-26T04:55:18.492Z,55.10
2018-03-26T04:57:44.901Z,54.20
2018-03-26T05:00:11.244Z,54.00
2018-03-26T05:02:37.540Z,53.30
2018-03-26T05:05:04.624Z,51.60
2018-03-26T05:07:30.948Z,51.50
2018-03-26T05:09:57.257Z,49.20
2018-03-26T05:12:24.333Z,48.50
2018-03-26T05:14:50.623Z,48.50
2018-03-26T05:17:17.674Z,70.50
2018-03-26T05:19:45.678Z,71.00
2018-03-26T05:22:12.045Z,70.90
2018-03-26T05:24:38.348Z,61.40
2018-03-26T05:27:04.656Z,57.40
2018-03-26T05:29:31.113Z,58.80
2018-03-26T05:31:57.434Z,59.50
2018-03-26T05:34:23.792Z,54.90
2018-03-26T05:36:50.208Z,50.80
2018-03-26T05:39:16.544Z,50.00
2018-03-26T05:41:42.852Z,49.30
2018-03-26T05:44:09.181Z,49.60
2018-03-26T05:46:35.513Z,49.40
2018-03-26T05:49:01.820Z,49.50
2018-03-26T05:51:28.868Z,49.80
2018-03-26T05:53:55.940Z,50.00
2018-03-26T05:56:22.216Z,50.00
2018-03-26T05:58:48.488Z,49.70
2018-03-26T06:01:15.533Z,50.30
2018-03-26T06:03:42.592Z,50.30
2018-03-26T06:06:08.865Z,50.30
2018-03-26T06:08:35.180Z,50.60
2018-03-26T06:11:01.617Z,50.90
2018-03-26T06:13:27.915Z,52.20
2018-03-26T06:15:54.179Z,51.50
2018-03-26T06:18:20.502Z,51.60
2018-03-26T06:20:46.856Z,51.60
2018-03-26T06:23:13.276Z,51.50
2018-03-26T06:25:39.588Z,51.70
2018-03-26T06:28:05.940Z,51.90
2018-03-26T06:30:32.479Z,51.90
2018-03-26T06:32:59.484Z,52.40
2018-03-26T06:35:25.785Z,52.40
2018-03-26T06:38:12.892Z,52.30
2018-03-26T06:40:39.196Z,52.30
2018-03-26T06:43:05.500Z,52.30
2018-03-26T06:45:31.820Z,52.50
2018-03-26T06:47:58.841Z,52.50
2018-03-26T06:50:25.137Z,52.50
2018-03-26T06:52:51.422Z,53.20
2018-03-26T06:55:18.461Z,52.70
2018-03-26T06:57:45.529Z,52.70
2018-03-26T07:00:11.876Z,52.70
2018-03-26T07:02:38.272Z,52.60
2018-03-26T07:05:05.371Z,52.90
2018-03-26T07:07:31.677Z,52.90
2018-03-26T07:09:58.731Z,53.20
2018-03-26T07:12:25.031Z,53.10
2018-03-26T07:14:51.393Z,52.80
2018-03-26T07:17:17.685Z,52.70
2018-03-26T07:19:44.084Z,52.60
2018-03-26T07:22:10.446Z,52.70
2018-03-26T07:24:36.758Z,52.30
2018-03-26T07:27:03.310Z,52.40
2018-03-26T07:29:29.610Z,52.00
2018-03-26T07:31:55.908Z,52.00
2018-03-26T07:34:23.082Z,51.90
2018-03-26T07:36:49.436Z,52.50
2018-03-26T07:39:15.768Z,52.00
2018-03-26T07:41:42.178Z,51.90
2018-03-26T07:44:08.495Z,52.10
2018-03-26T07:46:34.787Z,51.80
2018-03-26T07:49:01.170Z,51.70
2018-03-26T07:51:27.529Z,51.50
2018-03-26T07:53:53.815Z,51.40
2018-03-26T07:56:20.135Z,51.20
2018-03-26T07:58:47.165Z,50.70
2018-03-26T08:01:14.208Z,49.10
2018-03-26T08:03:40.488Z,49.10
2018-03-26T08:06:06.880Z,47.80
2018-03-26T08:08:33.955Z,48.10
2018-03-26T08:11:00.264Z,48.10
2018-03-26T08:13:27.312Z,48.50
2018-03-26T08:15:54.364Z,49.00
2018-03-26T08:18:22.332Z,48.20
2018-03-26T08:20:48.676Z,48.20
2018-03-26T08:23:15.119Z,48.40
2018-03-26T08:25:41.432Z,48.40
2018-03-26T08:28:08.448Z,48.70
2018-03-26T08:30:34.740Z,48.70
2018-03-26T08:33:01.026Z,48.10
2018-03-26T08:35:28.067Z,47.30
2018-03-26T08:37:54.352Z,48.10
2018-03-26T08:40:20.682Z,46.70
2018-03-26T08:42:47.072Z,46.70
2018-03-26T08:45:14.188Z,46.40
2018-03-26T08:47:40.840Z,46.40
2018-03-26T08:50:08.022Z,45.80
2018-03-26T08:52:34.313Z,45.80
2018-03-26T08:55:00.611Z,45.80
2018-03-26T08:57:26.949Z,45.70
2018-03-26T08:59:53.284Z,45.20
2018-03-26T09:02:19.639Z,44.80
2018-03-26T09:04:46.036Z,44.40
2018-03-26T09:07:12.374Z,44.00
2018-03-26T09:09:38.716Z,42.90
2018-03-26T09:12:05.144Z,42.70
2018-03-26T09:14:31.436Z,41.90
2018-03-26T09:16:58.518Z,41.10
2018-03-26T09:19:24.815Z,41.10
2018-03-26T09:21:51.933Z,41.80
2018-03-26T09:24:18.326Z,41.90
2018-03-26T09:26:44.645Z,41.70
2018-03-26T09:29:10.965Z,42.00
2018-03-26T09:31:38.220Z,41.80
2018-03-26T09:34:04.556Z,41.50
2018-03-26T09:36:30.896Z,41.00
2018-03-26T09:38:57.258Z,40.30
2018-03-26T09:41:23.614Z,40.30
2018-03-26T09:43:49.976Z,40.40
2018-03-26T09:46:16.312Z,40.20
2018-03-26T09:48:42.601Z,41.40
2018-03-26T09:51:08.944Z,40.90
2018-03-26T09:53:35.993Z,41.40
2018-03-26T09:56:03.060Z,41.40
2018-03-26T09:58:30.136Z,41.10
2018-03-26T10:01:01.379Z,41.00
2018-03-26T10:03:27.716Z,41.00
2018-03-26T10:05:54.000Z,41.10
2018-03-26T10:08:21.097Z,40.10
2018-03-26T10:10:47.426Z,40.10
2018-03-26T10:13:13.730Z,40.00
2018-03-26T10:15:40.131Z,40.40
2018-03-26T10:18:06.432Z,40.70
2018-03-26T10:20:32.776Z,40.70
2018-03-26T10:22:59.085Z,41.70
2018-03-26T10:25:25.402Z,41.90
2018-03-26T10:27:51.720Z,42.00
2018-03-26T10:30:18.058Z,42.40
2018-03-26T10:32:44.364Z,41.80
2018-03-26T10:35:11.416Z,41.70
2018-03-26T10:37:38.480Z,41.90
2018-03-26T10:40:04.756Z,41.90
2018-03-26T10:42:31.060Z,41.50
2018-03-26T10:44:57.391Z,41.90
2018-03-26T10:47:23.726Z,42.30
2018-03-26T10:49:50.118Z,42.10
2018-03-26T10:52:17.240Z,43.30
2018-03-26T10:54:43.601Z,43.30
2018-03-26T10:57:10.681Z,42.80
2018-03-26T10:59:36.976Z,42.70
2018-03-26T11:02:04.037Z,42.80
2018-03-26T11:04:30.352Z,43.40
2018-03-26T11:06:57.400Z,42.60
2018-03-26T11:09:24.469Z,42.80
2018-03-26T11:11:50.789Z,42.80
2018-03-26T11:14:17.824Z,42.40
2018-03-26T11:16:44.896Z,42.00
2018-03-26T11:19:12.197Z,42.00
2018-03-26T11:21:38.723Z,42.60
2018-03-26T11:24:05.333Z,43.00
2018-03-26T11:26:31.792Z,42.90
2018-03-26T11:28:58.076Z,42.60
2018-03-26T11:31:25.098Z,43.00
2018-03-26T11:33:51.374Z,43.00
2018-03-26T11:36:17.673Z,42.80
2018-03-26T11:38:44.033Z,42.60
2018-03-26T11:41:10.408Z,41.50
2018-03-26T11:43:36.942Z,41.70
2018-03-26T11:46:03.248Z,40.90
2018-03-26T11:48:29.550Z,39.50
2018-03-26T11:50:55.848Z,39.10
2018-03-26T11:53:22.132Z,38.80
2018-03-26T11:55:48.421Z,38.10
2018-03-26T11:58:15.571Z,38.20
2018-03-26T12:00:42.737Z,36.90
2018-03-26T12:03:09.788Z,37.30
2018-03-26T12:05:36.818Z,36.80
2018-03-26T12:08:03.091Z,36.80
2018-03-26T12:10:29.368Z,37.00
2018-03-26T12:12:55.669Z,36.90
2018-03-26T12:15:21.956Z,36.60
2018-03-26T12:17:48.999Z,36.70
2018-03-26T12:20:28.314Z,36.50
2018-03-26T12:22:54.653Z,36.40
2018-03-26T12:25:21.036Z,36.90
2018-03-26T12:28:00.076Z,36.90
2018-03-26T12:30:26.390Z,36.90
2018-03-26T12:32:52.718Z,35.70
2018-03-26T12:35:31.265Z,36.30
2018-03-26T12:37:57.559Z,37.10
2018-03-26T12:40:35.988Z,36.00
2018-03-26T12:43:02.322Z,35.10
2018-03-26T12:45:40.672Z,34.20
2018-03-26T12:48:06.972Z,34.60
2018-03-26T12:50:45.359Z,34.80
2018-03-26T12:53:11.682Z,35.90
2018-03-26T12:55:38.713Z,37.10
2018-03-26T12:58:17.902Z,36.90
2018-03-26T13:00:50.346Z,36.90
2018-03-26T13:03:16.650Z,36.10
2018-03-26T13:05:43.679Z,35.70
2018-03-26T13:08:09.957Z,35.60
2018-03-26T13:10:36.237Z,36.30
2018-03-26T13:13:02.568Z,36.60
2018-03-26T13:15:28.929Z,37.60
2018-03-26T13:17:55.953Z,37.60
2018-03-26T13:20:22.245Z,37.60
2018-03-26T13:22:48.520Z,37.60
2018-03-26T13:25:15.581Z,36.70
2018-03-26T13:27:42.604Z,37.90
2018-03-26T13:30:08.894Z,37.90
2018-03-26T13:32:35.229Z,38.00
2018-03-26T13:35:01.554Z,37.60
2018-03-26T13:37:27.852Z,37.90
2018-03-26T13:39:54.878Z,38.30
2018-03-26T13:42:21.197Z,38.30
2018-03-26T13:44:47.515Z,38.00
2018-03-26T13:47:13.823Z,38.30
2018-03-26T13:49:40.114Z,38.40
2018-03-26T13:52:07.178Z,38.60
2018-03-26T13:54:34.220Z,40.00
2018-03-26T13:57:01.276Z,39.80
2018-03-26T13:59:28.342Z,39.30
2018-03-26T14:01:54.660Z,39.30
2018-03-26T14:04:20.962Z,40.00
2018-03-26T14:06:47.275Z,40.10
2018-03-26T14:09:25.721Z,40.70
2018-03-26T14:12:04.960Z,40.70
2018-03-26T14:14:44.272Z,41.00
2018-03-26T14:17:22.611Z,41.00
2018-03-26T14:19:49.709Z,41.40
2018-03-26T14:22:16.062Z,41.40
2018-03-26T14:24:43.415Z,41.80
2018-03-26T14:27:10.527Z,42.50
2018-03-26T14:29:36.877Z,42.50
2018-03-26T14:32:03.194Z,42.30
2018-03-26T14:34:29.538Z,43.20
2018-03-26T14:36:56.091Z,42.30
2018-03-26T14:39:22.460Z,42.70
2018-03-26T14:41:49.497Z,52.50
2018-03-26T14:44:16.553Z,43.80
2018-03-26T14:46:43.620Z,42.90
2018-03-26T14:49:09.930Z,42.90
2018-03-26T14:51:37.010Z,42.50
2018-03-26T14:54:03.451Z,42.50
2018-03-26T14:56:29.909Z,43.10
2018-03-26T14:58:56.351Z,43.00
2018-03-26T15:01:22.948Z,43.50
2018-03-26T15:03:55.333Z,43.50
2018-03-26T15:06:21.705Z,42.90
2018-03-26T15:08:48.067Z,42.90
2018-03-26T15:11:14.360Z,43.10
2018-03-26T15:13:40.832Z,43.30
2018-03-26T15:16:07.345Z,44.30
2018-03-26T15:18:33.740Z,44.40
2018-03-26T15:21:00.053Z,44.10
2018-03-26T15:23:26.397Z,44.00
2018-03-26T15:25:52.717Z,43.80
2018-03-26T15:28:19.072Z,43.80
2018-03-26T15:30:45.389Z,44.10
2018-03-26T15:33:11.699Z,44.30
2018-03-26T15:35:38.053Z,44.60
2018-03-26T15:38:04.468Z,44.00
2018-03-26T15:40:30.804Z,44.60
2018-03-26T15:42:57.072Z,45.10
2018-03-26T15:45:23.426Z,44.70
2018-03-26T15:47:49.725Z,44.90
2018-03-26T15:50:16.030Z,44.80
2018-03-26T15:52:42.393Z,44.40
2018-03-26T15:55:08.697Z,44.50
2018-03-26T15:57:35.028Z,44.60
2018-03-26T16:00:01.406Z,44.30
2018-03-26T16:02:34.443Z,45.50
2018-03-26T16:05:01.153Z,45.40
2018-03-26T16:07:28.204Z,43.90
2018-03-26T16:09:54.802Z,43.90
2018-03-26T16:12:21.172Z,44.20
2018-03-26T16:14:47.467Z,44.40
2018-03-26T16:17:14.446Z,43.90
2018-03-26T16:19:42.043Z,43.40
2018-03-26T16:22:08.477Z,43.30
2018-03-26T16:24:34.821Z,43.00
2018-03-26T16:27:01.150Z,43.10
2018-03-26T16:29:27.440Z,43.30
2018-03-26T16:31:54.024Z,43.50
2018-03-26T16:34:20.437Z,43.80
2018-03-26T16:36:46.724Z,43.70
2018-03-26T16:39:14.197Z,44.90
2018-03-26T16:41:45.979Z,44.80
2018-03-26T16:44:12.332Z,44.80
2018-03-26T16:46:38.644Z,44.30
2018-03-26T16:49:04.982Z,44.20
2018-03-26T16:51:31.294Z,44.00
2018-03-26T16:53:57.582Z,43.70
2018-03-26T16:56:23.928Z,44.10
2018-03-26T16:58:50.994Z,43.60
2018-03-26T17:01:17.269Z,43.60
2018-03-26T17:03:43.652Z,43.10
2018-03-26T17:06:10.678Z,43.10
2018-03-26T17:08:37.873Z,43.10
2018-03-26T17:11:04.144Z,43.10
2018-03-26T17:13:30.568Z,43.30
2018-03-26T17:15:56.864Z,43.50
2018-03-26T17:18:23.235Z,43.50
2018-03-26T17:20:49.535Z,43.90
2018-03-26T17:23:15.866Z,44.00
2018-03-26T17:25:42.433Z,44.00
2018-03-26T17:28:08.833Z,44.00
2018-03-26T17:30:35.135Z,44.30
2018-03-26T17:33:01.620Z,44.40
2018-03-26T17:35:28.402Z,44.60
2018-03-26T17:37:55.444Z,45.10
2018-03-26T17:40:22.511Z,45.40
2018-03-26T17:42:48.800Z,45.40
2018-03-26T17:45:15.170Z,45.90
2018-03-26T17:47:41.460Z,46.60
2018-03-26T17:50:07.849Z,46.70
2018-03-26T17:52:34.176Z,46.80
2018-03-26T17:55:00.469Z,47.00
2018-03-26T17:57:26.881Z,47.50
2018-03-26T17:59:53.151Z,48.10
2018-03-26T18:02:20.282Z,48.90
2018-03-26T18:04:47.393Z,48.90
2018-03-26T18:07:13.677Z,48.90
2018-03-26T18:09:40.705Z,49.10
2018-03-26T18:12:07.002Z,49.20
2018-03-26T18:14:33.311Z,49.70
2018-03-26T18:16:59.621Z,49.30
2018-03-26T18:19:26.773Z,50.40
2018-03-26T18:21:53.100Z,50.40
2018-03-26T18:24:20.135Z,51.20
2018-03-26T18:26:47.303Z,50.90
2018-03-26T18:29:14.357Z,51.10
2018-03-26T18:31:40.682Z,51.00
2018-03-26T18:34:07.043Z,52.40
2018-03-26T18:36:33.397Z,51.60
2018-03-26T18:38:59.753Z,50.80
2018-03-26T18:41:27.109Z,50.70
2018-03-26T18:43:54.537Z,50.50
2018-03-26T18:46:20.970Z,50.50
2018-03-26T18:48:48.841Z,50.60
2018-03-26T18:51:15.492Z,50.70
2018-03-26T18:53:41.777Z,50.60
2018-03-26T18:56:08.094Z,50.20
2018-03-26T18:58:35.272Z,50.10
2018-03-26T19:01:01.610Z,50.00
2018-03-26T19:03:28.050Z,50.20
2018-03-26T19:05:54.389Z,50.30
2018-03-26T19:08:20.819Z,50.70
2018-03-26T19:10:47.142Z,50.90
2018-03-26T19:13:13.529Z,51.10
2018-03-26T19:15:40.044Z,51.40
2018-03-26T19:18:06.355Z,51.30
2018-03-26T19:20:32.692Z,51.30
2018-03-26T19:22:59.067Z,51.30
2018-03-26T19:25:25.385Z,51.50
2018-03-26T19:27:52.670Z,51.50
2018-03-26T19:30:18.997Z,51.50
2018-03-26T19:32:45.329Z,51.40
2018-03-26T19:35:11.673Z,51.40
2018-03-26T19:37:37.951Z,51.60
2018-03-26T19:40:05.016Z,51.80
2018-03-26T19:42:31.368Z,51.80
2018-03-26T19:44:57.710Z,51.50
2018-03-26T19:47:24.036Z,51.50
2018-03-26T19:49:50.722Z,51.50
2018-03-26T19:52:17.007Z,52.00
2018-03-26T19:54:43.272Z,53.20
2018-03-26T19:57:09.567Z,52.20
2018-03-26T19:59:35.816Z,52.10
2018-03-26T20:02:02.100Z,51.90
2018-03-26T20:04:29.157Z,51.60
2018-03-26T20:06:55.463Z,51.60
2018-03-26T20:09:22.572Z,51.70
2018-03-26T20:11:48.847Z,51.70
2018-03-26T20:14:15.897Z,51.70
2018-03-26T20:16:42.950Z,51.90
2018-03-26T20:19:10.068Z,52.30
2018-03-26T20:21:36.465Z,52.10
2018-03-26T20:24:02.799Z,52.30
2018-03-26T20:26:29.100Z,52.40
2018-03-26T20:28:56.136Z,52.20
2018-03-26T20:31:23.180Z,52.10
2018-03-26T20:33:49.483Z,52.10
2018-03-26T20:36:15.954Z,52.10
2018-03-26T20:38:43.012Z,52.30
2018-03-26T20:41:09.385Z,52.20
2018-03-26T20:43:35.694Z,51.90
2018-03-26T20:46:01.997Z,51.70
2018-03-26T20:48:29.069Z,52.30
2018-03-26T20:50:55.382Z,52.30
2018-03-26T20:53:21.655Z,51.90
2018-03-26T20:55:47.973Z,52.10
2018-03-26T20:58:14.272Z,52.30
2018-03-26T21:00:41.297Z,52.40
2018-03-26T21:03:08.379Z,52.50
2018-03-26T21:05:34.705Z,52.40
2018-03-26T21:08:01.012Z,52.70
2018-03-26T21:10:28.055Z,54.10
2018-03-26T21:12:54.443Z,54.10
2018-03-26T21:15:20.858Z,54.40
2018-03-26T21:17:47.184Z,54.70
2018-03-26T21:20:13.573Z,55.30
2018-03-26T21:22:39.880Z,55.90
2018-03-26T21:25:06.239Z,56.20
2018-03-26T21:27:32.637Z,56.50
2018-03-26T21:29:58.959Z,56.90
2018-03-26T21:32:25.334Z,58.20
2018-03-26T21:34:52.425Z,57.80
2018-03-26T21:37:18.734Z,57.80
2018-03-26T21:39:45.769Z,58.70
2018-03-26T21:42:12.467Z,58.50
2018-03-26T21:44:38.824Z,58.80
2018-03-26T21:47:05.203Z,59.50
2018-03-26T21:49:31.578Z,59.60
2018-03-26T21:51:57.912Z,60.00
2018-03-26T21:54:24.224Z,60.60
2018-03-26T21:56:50.660Z,60.70
2018-03-26T21:59:16.993Z,60.70
2018-03-26T22:01:43.455Z,61.10
2018-03-26T22:04:09.769Z,61.00
2018-03-26T22:06:36.102Z,61.20
2018-03-26T22:09:02.481Z,61.50
2018-03-26T22:11:29.531Z,62.30
2018-03-26T22:13:55.848Z,62.50
2018-03-26T22:16:22.958Z,63.20
2018-03-26T22:18:49.261Z,63.80
2018-03-26T22:21:15.600Z,63.40
2018-03-26T22:23:41.908Z,63.80
2018-03-26T22:26:08.236Z,64.20
2018-03-26T22:28:34.608Z,64.40
2018-03-26T22:31:00.913Z,64.20
2018-03-26T22:33:27.324Z,64.40
2018-03-26T22:35:54.365Z,64.80
2018-03-26T22:38:21.437Z,64.90
2018-03-26T22:40:47.742Z,64.70
2018-03-26T22:43:14.821Z,65.10
2018-03-26T22:45:41.134Z,65.10
2018-03-26T22:48:08.153Z,65.20
2018-03-26T22:50:34.447Z,65.20
2018-03-26T22:53:00.759Z,65.40
2018-03-26T22:55:27.056Z,64.90
2018-03-26T22:57:53.369Z,65.70
2018-03-26T23:00:19.780Z,65.00
2018-03-26T23:02:46.083Z,64.50
2018-03-26T23:05:12.399Z,64.70
2018-03-26T23:07:38.700Z,64.40
2018-03-26T23:10:04.998Z,64.90
2018-03-26T23:12:31.333Z,64.90
2018-03-26T23:14:57.660Z,65.10
2018-03-26T23:17:23.961Z,65.10
2018-03-26T23:19:50.325Z,65.30
2018-03-26T23:22:28.764Z,65.80
2018-03-26T23:24:55.113Z,65.70
2018-03-26T23:27:21.479Z,65.70
2018-03-26T23:29:47.818Z,65.80
2018-03-26T23:32:14.124Z,66.60
2018-03-26T23:34:41.172Z,65.80
2018-03-26T23:37:08.224Z,65.60
2018-03-26T23:39:35.261Z,65.40
2018-03-26T23:42:02.320Z,65.40
2018-03-26T23:44:29.416Z,65.70
2018-03-26T23:46:55.733Z,65.70
2018-03-26T23:49:22.065Z,65.70
2018-03-26T23:51:48.382Z,65.50
2018-03-26T23:54:14.713Z,65.20
2018-03-26T23:56:41.045Z,65.40
2018-03-26T23:59:07.353Z,65.60
